createdAt,value
2023-01-18T00:02:33.783Z,16.50
2023-01-18T00:06:22.746Z,10.10
2023-01-18T00:10:11.734Z,9.90
2023-01-18T00:13:59.527Z,7.40
2023-01-18T00:33:26.037Z,8.40
2023-01-18T00:37:14.939Z,7.20
2023-01-18T00:41:04.226Z,8.70
2023-01-18T00:44:43.069Z,8.30
2023-01-18T00:48:32.089Z,9.80
2023-01-18T00:52:24.037Z,9.70
2023-01-18T00:56:13.329Z,12.10
2023-01-18T00:59:56.342Z,12.10
2023-01-18T01:03:45.615Z,13.50
2023-01-18T01:07:34.840Z,12.90
2023-01-18T01:11:24.925Z,13.20
2023-01-18T01:15:15.258Z,13.80
2023-01-18T01:19:03.079Z,13.60
2023-01-18T01:22:50.319Z,14.90
2023-01-18T01:30:36.698Z,20.20
2023-01-18T01:34:25.805Z,19.50
2023-01-18T01:38:13.629Z,20.10
2023-01-18T01:42:03.254Z,20.00
2023-01-18T01:45:52.450Z,22.40
2023-01-18T01:49:50.743Z,21.00
2023-01-18T02:09:16.831Z,22.30
2023-01-18T02:13:06.418Z,18.90
2023-01-18T02:16:52.655Z,19.40
2023-01-18T02:20:50.720Z,21.40
2023-01-18T02:24:41.175Z,22.30
2023-01-18T02:32:02.361Z,19.60
2023-01-18T02:40:08.245Z,21.10
2023-01-18T02:43:55.918Z,18.60
2023-01-18T02:47:44.916Z,19.80
2023-01-18T02:51:34.330Z,18.30
2023-01-18T02:55:24.332Z,18.80
2023-01-18T03:00:07.867Z,19.10
2023-01-18T03:03:55.404Z,17.80
2023-01-18T03:07:43.357Z,15.10
2023-01-18T03:16:25.460Z,14.50
2023-01-18T03:20:25.558Z,13.10
2023-01-18T03:24:14.598Z,11.90
2023-01-18T03:28:00.112Z,11.60
2023-01-18T03:31:47.044Z,11.80
2023-01-18T03:43:57.201Z,13.20
2023-01-18T03:47:46.388Z,13.10
2023-01-18T03:51:47.399Z,11.10
2023-01-18T03:55:42.510Z,12.80
2023-01-18T03:59:31.676Z,13.50
2023-01-18T04:03:21.619Z,12.20
2023-01-18T04:07:11.986Z,10.70
2023-01-18T04:11:02.062Z,11.20
2023-01-18T04:14:51.327Z,11.80
2023-01-18T04:18:39.517Z,10.50
2023-01-18T04:22:29.635Z,10.60
2023-01-18T04:26:19.542Z,10.80
2023-01-18T04:30:09.370Z,10.60
2023-01-18T04:33:59.989Z,10.80
2023-01-18T04:37:55.060Z,10.20
2023-01-18T04:41:47.062Z,10.20
2023-01-18T04:45:36.188Z,10.10
2023-01-18T04:49:25.403Z,10.70
2023-01-18T04:53:14.526Z,11.20
2023-01-18T04:57:03.583Z,11.60
2023-01-18T05:00:52.798Z,11.80
2023-01-18T05:04:41.997Z,10.70
2023-01-18T05:08:31.772Z,10.80
2023-01-18T05:12:22.172Z,9.20
2023-01-18T05:28:02.096Z,12.10
2023-01-18T05:31:51.245Z,11.90
2023-01-18T05:35:32.809Z,12.00
2023-01-18T05:39:51.216Z,12.50
2023-01-18T05:43:40.273Z,12.80
2023-01-18T05:47:29.238Z,13.00
2023-01-18T05:51:18.774Z,12.70
2023-01-18T05:55:07.817Z,14.90
2023-01-18T05:58:56.748Z,16.30
2023-01-18T06:02:38.184Z,15.20
2023-01-18T06:06:57.884Z,15.90
2023-01-18T06:10:46.972Z,16.50
2023-01-18T06:14:35.966Z,16.20
2023-01-18T06:18:24.934Z,16.50
2023-01-18T06:22:14.430Z,17.70
2023-01-18T06:26:03.630Z,17.50
2023-01-18T06:29:53.010Z,17.50
2023-01-18T06:33:44.045Z,17.30
2023-01-18T06:53:01.561Z,22.90
2023-01-18T06:56:59.515Z,15.40
2023-01-18T07:00:48.937Z,21.50
2023-01-18T07:04:38.264Z,20.20
2023-01-18T07:08:27.385Z,18.80
2023-01-18T07:12:16.480Z,21.20
2023-01-18T07:16:06.437Z,26.70
2023-01-18T07:19:56.357Z,25.30
2023-01-18T07:23:45.977Z,26.80
2023-01-18T07:31:05.167Z,25.80
2023-01-18T07:34:57.518Z,28.80
2023-01-18T07:38:48.808Z,28.20
2023-01-18T07:42:37.932Z,26.60
2023-01-18T07:46:26.961Z,28.00
2023-01-18T07:50:15.995Z,27.30
2023-01-18T07:54:05.248Z,27.00
2023-01-18T07:57:54.300Z,30.90
2023-01-18T08:01:46.668Z,27.40
2023-01-18T08:05:35.786Z,26.40
2023-01-18T08:09:26.634Z,29.40
2023-01-18T08:13:17.453Z,28.40
2023-01-18T08:17:11.073Z,30.00
2023-01-18T08:21:20.111Z,31.70
2023-01-18T08:25:11.269Z,28.30
2023-01-18T08:29:01.659Z,29.40
2023-01-18T08:32:43.801Z,34.50
2023-01-18T08:36:32.320Z,34.00
2023-01-18T08:40:22.517Z,34.80
2023-01-18T08:44:13.772Z,34.80
2023-01-18T08:51:31.531Z,30.30
2023-01-18T08:55:23.886Z,29.70
2023-01-18T08:59:13.076Z,29.40
2023-01-18T09:03:02.730Z,32.90
2023-01-18T09:06:52.771Z,28.60
2023-01-18T09:10:43.798Z,27.80
2023-01-18T09:14:34.555Z,28.10
2023-01-18T09:18:24.276Z,27.30
2023-01-18T09:22:13.283Z,25.60
2023-01-18T09:52:09.452Z,27.80
2023-01-18T09:56:00.342Z,27.70
2023-01-18T10:00:05.228Z,27.30
2023-01-18T10:03:40.032Z,25.70
2023-01-18T10:07:21.832Z,25.10
2023-01-18T10:11:11.050Z,24.10
2023-01-18T10:15:03.176Z,24.90
2023-01-18T10:18:54.194Z,24.90
2023-01-18T10:31:35.225Z,26.20
2023-01-18T10:35:26.959Z,27.00
2023-01-18T10:39:16.450Z,23.80
2023-01-18T10:43:14.720Z,24.90
2023-01-18T10:47:04.423Z,25.30
2023-01-18T10:58:45.316Z,28.30
2023-01-18T11:02:18.483Z,24.80
2023-01-18T11:06:13.473Z,24.70
2023-01-18T11:18:17.973Z,25.30
2023-01-18T11:22:06.936Z,24.50
2023-01-18T11:25:56.813Z,24.60
2023-01-18T11:37:49.346Z,31.50
2023-01-18T11:41:41.502Z,28.80
2023-01-18T11:45:46.016Z,28.10
2023-01-18T11:57:48.769Z,32.50
2023-01-18T12:01:36.111Z,31.40
2023-01-18T12:05:31.178Z,27.80
2023-01-18T12:09:32.018Z,29.90
2023-01-18T12:13:22.053Z,27.70
2023-01-18T12:26:20.002Z,34.00
2023-01-18T12:30:20.620Z,33.00
2023-01-18T12:42:36.395Z,30.30
2023-01-18T12:46:46.037Z,27.50
2023-01-18T13:02:28.962Z,24.00
2023-01-18T13:06:24.996Z,22.30
2023-01-18T13:22:39.788Z,12.90
2023-01-18T13:26:48.696Z,10.70
2023-01-18T13:30:35.727Z,11.50
2023-01-18T13:35:20.635Z,12.00
2023-01-18T13:39:06.471Z,10.50
2023-01-18T13:43:23.034Z,8.60
2023-01-18T13:47:17.936Z,8.80
2023-01-18T13:51:09.206Z,16.00
2023-01-18T13:54:59.579Z,9.50
2023-01-18T14:06:45.802Z,9.10
2023-01-18T14:10:35.347Z,9.30
2023-01-18T14:22:55.751Z,10.50
2023-01-18T14:26:50.431Z,12.60
2023-01-18T14:34:36.853Z,16.10
2023-01-18T14:38:28.694Z,13.40
2023-01-18T14:42:16.827Z,11.60
2023-01-18T14:58:01.634Z,12.50
2023-01-18T15:01:53.380Z,11.00
2023-01-18T15:05:52.326Z,13.80
2023-01-18T15:29:05.050Z,11.40
2023-01-18T15:33:00.300Z,8.40
2023-01-18T15:36:49.971Z,5.90
2023-01-18T15:40:42.628Z,4.80
2023-01-18T15:44:31.724Z,4.30
2023-01-18T16:00:16.396Z,5.30
2023-01-18T16:04:08.476Z,4.70
2023-01-18T16:16:26.303Z,5.50
2023-01-18T16:20:15.465Z,5.20
2023-01-18T16:24:06.969Z,5.40
2023-01-18T16:28:01.033Z,4.30
2023-01-18T16:44:06.851Z,4.50
2023-01-18T16:47:55.045Z,3.70
2023-01-18T16:51:44.626Z,4.20
2023-01-18T16:55:31.328Z,4.60
2023-01-18T16:59:19.167Z,4.90
2023-01-18T17:03:07.292Z,9.80
2023-01-18T17:06:57.960Z,12.10
2023-01-18T17:11:01.224Z,9.60
2023-01-18T17:22:53.319Z,3.80
2023-01-18T17:26:43.031Z,4.90
2023-01-18T17:30:32.630Z,5.10
2023-01-18T17:34:27.100Z,4.60
2023-01-18T17:38:24.348Z,24.70
2023-01-18T17:42:18.969Z,21.80
2023-01-18T17:46:12.089Z,26.90
2023-01-18T17:50:01.589Z,31.60
2023-01-18T18:05:42.030Z,12.90
2023-01-18T18:09:32.063Z,10.30
2023-01-18T18:13:21.484Z,23.60
2023-01-18T18:17:10.719Z,26.80
2023-01-18T18:20:59.954Z,10.80
2023-01-18T18:24:50.858Z,22.60
2023-01-18T18:28:39.931Z,17.90
2023-01-18T18:32:29.202Z,10.80
2023-01-18T18:36:51.009Z,11.30
2023-01-18T18:40:40.266Z,8.40
2023-01-18T18:44:29.968Z,7.70
2023-01-18T18:48:19.090Z,14.00
2023-01-18T18:52:09.665Z,5.80
2023-01-18T18:55:58.600Z,4.30
2023-01-18T19:03:10.120Z,5.70
2023-01-18T19:07:00.143Z,7.70
2023-01-18T19:10:51.390Z,9.50
2023-01-18T19:14:43.068Z,5.80
2023-01-18T19:22:02.131Z,8.00
2023-01-18T19:25:52.054Z,37.30
2023-01-18T19:29:04.242Z,41.80
2023-01-18T19:32:53.433Z,25.10
2023-01-18T19:36:48.423Z,8.20
2023-01-18T19:40:37.557Z,6.50
2023-01-18T19:44:26.855Z,5.90
2023-01-18T19:48:15.711Z,5.40
2023-01-18T19:52:05.005Z,5.60
2023-01-18T19:55:59.793Z,5.80
2023-01-18T19:59:56.584Z,6.80
2023-01-18T20:03:46.298Z,9.60
2023-01-18T20:11:00.361Z,6.70
2023-01-18T20:14:51.237Z,15.00
2023-01-18T20:19:11.026Z,17.70
2023-01-18T20:23:00.758Z,19.60
2023-01-18T20:26:55.064Z,8.90
2023-01-18T20:30:45.637Z,9.00
2023-01-18T20:34:35.013Z,13.80
2023-01-18T20:38:25.921Z,18.80
2023-01-18T20:42:14.780Z,34.90
2023-01-18T20:46:06.737Z,12.20
2023-01-18T20:49:55.657Z,11.30
2023-01-18T20:53:46.229Z,22.50
2023-01-18T20:57:58.666Z,16.50
2023-01-18T21:02:04.862Z,12.80
2023-01-18T21:06:22.484Z,10.60
2023-01-18T21:30:00.908Z,10.60
2023-01-18T21:33:49.897Z,13.40
2023-01-18T21:37:29.450Z,10.40
2023-01-18T21:41:18.725Z,9.50
2023-01-18T21:45:05.035Z,7.70
2023-01-18T21:48:54.157Z,11.20
2023-01-18T21:52:41.485Z,9.70
2023-01-18T21:56:30.496Z,8.90
2023-01-18T22:00:19.669Z,8.10
2023-01-18T22:04:08.423Z,8.10
2023-01-18T22:07:57.862Z,14.50
2023-01-18T22:11:48.350Z,8.30
2023-01-18T22:27:48.533Z,9.10
2023-01-18T22:31:36.068Z,9.30
2023-01-18T22:35:23.978Z,10.20
2023-01-18T22:47:17.179Z,10.30
2023-01-18T22:51:07.514Z,13.20
2023-01-18T22:54:57.439Z,18.30
2023-01-18T22:59:16.040Z,55.20
2023-01-18T23:03:05.139Z,36.20
2023-01-18T23:06:54.491Z,16.00
2023-01-18T23:10:43.519Z,14.10
2023-01-18T23:14:30.771Z,13.70
2023-01-18T23:18:19.804Z,12.70
2023-01-18T23:22:09.378Z,14.40
2023-01-18T23:25:58.472Z,8.50
2023-01-18T23:29:47.512Z,8.00
2023-01-18T23:33:36.831Z,8.40
2023-01-18T23:37:26.248Z,10.40
2023-01-18T23:41:12.901Z,11.10
2023-01-18T23:45:00.379Z,14.80
2023-01-18T23:48:47.658Z,13.70
2023-01-18T23:52:35.217Z,12.70
2023-01-18T23:56:24.251Z,13.10
2023-01-18T23:59:53.284Z,12.60
